PWSweather.com
Personal Weather Stations
Station Observations

EmmenNL

Lat: 52.74388, Lon: 6.898477

Elevation: 49

Station Type: Davis Vantage Pro2 Plus

http://www.emmenzuidwest.nl

Latest ConditionsUpdated 1:22:04 PM GMT+01:01 Monday, May 27, 2019
Currently Today's Max Today's Min Today's Average
Temperature 63.0°F17.2°C 64.9°F18.3°C 53.1°F11.7°C 58.3°F14.6°C
Dew Point 48.4°F9.1°C 55.6°F13.1°C 46.6°F8.1°C 52.6°F11.4°C
Winds 2.7 mph WSW4.3 kmh WSW 7.2 mph -11.6 kmh - - 2.1 mph 3.4 kmh
Wind Gusts 3.1 mph5.0 kmh 12.8 mph20.6 kmh - -
Humidity 59% 96% 56% 83%
Pressure 29.78 in1008.5 mb 29.79 in1008.8 mb 29.75 in1007.5 mb -
Precipitation - 0.02 in0.5 mm - -
Hour Temp Dew Point Humidity Winds Wind Gusts Pressure Precip Precip Rate Daily Precip Total
01:22 PM 63.0°F17.2°C 48.4°F9.1°C 59% 2.7 mph WSW4.3 kmh WSW 3.1 mph5.0 kmh 29.78 in1008.5 mb - 0.00 in0.0 mm 0.02 in0.5 mm
01:17 PM 63.0°F17.2°C 47.5°F8.6°C 57% 4.0 mph SW6.4 kmh SW 3.1 mph5.0 kmh 29.78 in1008.5 mb - 0.00 in0.0 mm 0.02 in0.5 mm
01:12 PM 63.0°F17.2°C 48.4°F9.1°C 59% 4.0 mph W6.4 kmh W -- 29.78 in1008.5 mb - 0.00 in0.0 mm 0.02 in0.5 mm
01:07 PM 62.2°F16.8°C 48.6°F9.2°C 61% 1.6 mph SW2.6 kmh SW 1.1 mph1.8 kmh 29.78 in1008.5 mb - 0.00 in0.0 mm 0.02 in0.5 mm
01:02 PM 62.1°F16.7°C 47.5°F8.6°C 59% 3.4 mph S5.5 kmh S 5.4 mph8.7 kmh 29.78 in1008.5 mb - 0.00 in0.0 mm 0.02 in0.5 mm
12:57 PM 62.1°F16.7°C 48.0°F8.9°C 60% 3.4 mph SSW5.5 kmh SSW -- 29.78 in1008.5 mb - 0.00 in0.0 mm 0.02 in0.5 mm
12:52 PM 61.9°F16.6°C 48.2°F9.0°C 61% 2.2 mph WSW3.5 kmh WSW 2.0 mph3.2 kmh 29.78 in1008.5 mb - 0.00 in0.0 mm 0.02 in0.5 mm
12:47 PM 61.9°F16.6°C 46.9°F8.3°C 58% 5.4 mph WNW8.7 kmh WNW 10.5 mph16.9 kmh 29.78 in1008.5 mb - 0.00 in0.0 mm 0.02 in0.5 mm
12:42 PM 62.4°F16.9°C 46.6°F8.1°C 56% 7.2 mph WNW11.6 kmh WNW 2.0 mph3.2 kmh 29.78 in1008.5 mb - 0.00 in0.0 mm 0.02 in0.5 mm
12:37 PM 62.2°F16.8°C 47.3°F8.5°C 58% 5.4 mph WNW8.7 kmh WNW 4.3 mph6.9 kmh 29.78 in1008.5 mb - 0.00 in0.0 mm 0.02 in0.5 mm
12:32 PM 61.7°F16.5°C 47.3°F8.5°C 59% 6.9 mph WSW11.1 kmh WSW 3.1 mph5.0 kmh 29.78 in1008.5 mb - 0.00 in0.0 mm 0.02 in0.5 mm
12:27 PM 61.5°F16.4°C 48.0°F8.9°C 61% 4.5 mph SW7.2 kmh SW 4.3 mph6.9 kmh 29.78 in1008.5 mb - 0.00 in0.0 mm 0.02 in0.5 mm
12:22 PM 61.7°F16.5°C 48.2°F9.0°C 61% 4.7 mph S7.6 kmh S 3.1 mph5.0 kmh 29.78 in1008.5 mb - 0.00 in0.0 mm 0.02 in0.5 mm
12:17 PM 61.5°F16.4°C 47.1°F8.4°C 59% 4.5 mph W7.2 kmh W 1.1 mph1.8 kmh 29.78 in1008.5 mb - 0.00 in0.0 mm 0.02 in0.5 mm
12:12 PM 62.4°F16.9°C 47.5°F8.6°C 58% 5.8 mph WSW9.3 kmh WSW 3.1 mph5.0 kmh 29.78 in1008.5 mb - 0.00 in0.0 mm 0.02 in0.5 mm
12:07 PM 63.1°F17.3°C 47.7°F8.7°C 57% 6.0 mph SSW9.7 kmh SSW 3.1 mph5.0 kmh 29.78 in1008.5 mb - 0.00 in0.0 mm 0.02 in0.5 mm
12:02 PM 63.1°F17.3°C 49.1°F9.5°C 60% 5.1 mph SW8.2 kmh SW 4.3 mph6.9 kmh 29.78 in1008.5 mb - 0.00 in0.0 mm 0.02 in0.5 mm
11:57 AM 62.2°F16.8°C 48.6°F9.2°C 61% 3.8 mph SSW6.1 kmh SSW 1.1 mph1.8 kmh 29.78 in1008.5 mb - 0.00 in0.0 mm 0.02 in0.5 mm
11:52 AM 62.1°F16.7°C 48.0°F8.9°C 60% 5.6 mph WSW9.0 kmh WSW 3.1 mph5.0 kmh 29.78 in1008.5 mb - 0.00 in0.0 mm 0.02 in0.5 mm
11:47 AM 63.5°F17.5°C 48.0°F8.9°C 57% 6.5 mph SW10.5 kmh SW 12.8 mph20.6 kmh 29.78 in1008.5 mb - 0.00 in0.0 mm 0.02 in0.5 mm
11:42 AM 63.1°F17.3°C 49.1°F9.5°C 60% 5.4 mph S8.7 kmh S 3.1 mph5.0 kmh 29.78 in1008.5 mb - 0.00 in0.0 mm 0.02 in0.5 mm
11:37 AM 64.2°F17.9°C 49.1°F9.5°C 58% 6.5 mph NW10.5 kmh NW 5.4 mph8.7 kmh 29.78 in1008.5 mb - 0.00 in0.0 mm 0.02 in0.5 mm
11:32 AM 64.9°F18.3°C 50.2°F10.1°C 59% 4.5 mph SW7.2 kmh SW 3.1 mph5.0 kmh 29.78 in1008.5 mb - 0.00 in0.0 mm 0.02 in0.5 mm
11:27 AM 64.6°F18.1°C 50.4°F10.2°C 60% 4.5 mph SW7.2 kmh SW 3.1 mph5.0 kmh 29.78 in1008.5 mb - 0.00 in0.0 mm 0.02 in0.5 mm
11:22 AM 63.3°F17.4°C 49.3°F9.6°C 60% 3.8 mph W6.1 kmh W 6.3 mph10.1 kmh 29.78 in1008.5 mb - 0.00 in0.0 mm 0.02 in0.5 mm
11:17 AM 63.1°F17.3°C 49.1°F9.5°C 60% 5.1 mph WSW8.2 kmh WSW 2.0 mph3.2 kmh 29.78 in1008.5 mb - 0.00 in0.0 mm 0.02 in0.5 mm
11:12 AM 61.5°F16.4°C 48.0°F8.9°C 61% 3.4 mph SW5.5 kmh SW 5.4 mph8.7 kmh 29.78 in1008.5 mb - 0.00 in0.0 mm 0.02 in0.5 mm
11:07 AM 62.1°F16.7°C 49.3°F9.6°C 63% 3.6 mph WNW5.8 kmh WNW 10.5 mph16.9 kmh 29.78 in1008.5 mb - 0.00 in0.0 mm 0.02 in0.5 mm
11:02 AM 61.9°F16.6°C 47.5°F8.6°C 59% 3.8 mph W6.1 kmh W 6.3 mph10.1 kmh 29.78 in1008.5 mb - 0.00 in0.0 mm 0.02 in0.5 mm
10:57 AM 63.3°F17.4°C 48.4°F9.1°C 58% 5.6 mph S9.0 kmh S 4.3 mph6.9 kmh 29.78 in1008.5 mb - 0.00 in0.0 mm 0.02 in0.5 mm
10:52 AM 63.1°F17.3°C 49.1°F9.5°C 60% 4.3 mph SSW6.9 kmh SSW 3.1 mph5.0 kmh 29.78 in1008.5 mb - 0.00 in0.0 mm 0.02 in0.5 mm
10:47 AM 63.7°F17.6°C 49.1°F9.5°C 59% 2.0 mph ESE3.2 kmh ESE 3.1 mph5.0 kmh 29.78 in1008.5 mb - 0.00 in0.0 mm 0.02 in0.5 mm
10:42 AM 64.0°F17.8°C 50.4°F10.2°C 61% 5.1 mph W8.2 kmh W 3.1 mph5.0 kmh 29.79 in1008.8 mb - 0.00 in0.0 mm 0.02 in0.5 mm
10:37 AM 64.2°F17.9°C 51.8°F11.0°C 64% 3.8 mph SW6.1 kmh SW 5.4 mph8.7 kmh 29.78 in1008.5 mb - 0.00 in0.0 mm 0.02 in0.5 mm
10:32 AM 63.1°F17.3°C 49.5°F9.7°C 61% 6.3 mph W10.1 kmh W 4.3 mph6.9 kmh 29.78 in1008.5 mb - 0.00 in0.0 mm 0.02 in0.5 mm
10:27 AM 63.5°F17.5°C 49.8°F9.9°C 61% 4.5 mph SW7.2 kmh SW 7.4 mph11.9 kmh 29.78 in1008.5 mb - 0.00 in0.0 mm 0.02 in0.5 mm
10:22 AM 64.4°F18.0°C 51.6°F10.9°C 63% 4.5 mph WSW7.2 kmh WSW 3.1 mph5.0 kmh 29.78 in1008.5 mb - 0.00 in0.0 mm 0.02 in0.5 mm
10:17 AM 63.7°F17.6°C 51.6°F10.9°C 65% 4.9 mph SSW7.9 kmh SSW 6.3 mph10.1 kmh 29.78 in1008.5 mb - 0.00 in0.0 mm 0.02 in0.5 mm
10:12 AM 62.6°F17.0°C 50.2°F10.1°C 64% 2.7 mph SSW4.3 kmh SSW 2.0 mph3.2 kmh 29.78 in1008.5 mb - 0.00 in0.0 mm 0.02 in0.5 mm
10:07 AM 62.2°F16.8°C 51.1°F10.6°C 67% 4.5 mph WSW7.2 kmh WSW 2.0 mph3.2 kmh 29.78 in1008.5 mb - 0.00 in0.0 mm 0.02 in0.5 mm
10:02 AM 61.0°F16.1°C 49.1°F9.5°C 65% 4.3 mph NW6.9 kmh NW 3.1 mph5.0 kmh 29.78 in1008.5 mb - 0.00 in0.0 mm 0.02 in0.5 mm
09:57 AM 61.5°F16.4°C 50.5°F10.3°C 67% 4.0 mph W6.4 kmh W 3.1 mph5.0 kmh 29.78 in1008.5 mb - 0.00 in0.0 mm 0.02 in0.5 mm
09:52 AM 61.3°F16.3°C 50.4°F10.2°C 67% 4.5 mph WSW7.2 kmh WSW 5.4 mph8.7 kmh 29.78 in1008.5 mb - 0.00 in0.0 mm 0.02 in0.5 mm
09:47 AM 62.4°F16.9°C 52.9°F11.6°C 71% 4.9 mph WSW7.9 kmh WSW 3.1 mph5.0 kmh 29.78 in1008.5 mb - 0.00 in0.0 mm 0.02 in0.5 mm
09:42 AM 62.2°F16.8°C 50.7°F10.4°C 66% 5.4 mph WSW8.7 kmh WSW 4.3 mph6.9 kmh 29.78 in1008.5 mb - 0.00 in0.0 mm 0.02 in0.5 mm
09:37 AM 62.1°F16.7°C 52.9°F11.6°C 72% 4.3 mph W6.9 kmh W 4.3 mph6.9 kmh 29.78 in1008.5 mb - 0.00 in0.0 mm 0.02 in0.5 mm
09:32 AM 62.1°F16.7°C 52.2°F11.2°C 70% 2.9 mph SW4.7 kmh SW 3.1 mph5.0 kmh 29.77 in1008.1 mb - 0.00 in0.0 mm 0.02 in0.5 mm
09:27 AM 62.1°F16.7°C 53.6°F12.0°C 74% 3.1 mph S5.0 kmh S 4.3 mph6.9 kmh 29.77 in1008.1 mb - 0.00 in0.0 mm 0.02 in0.5 mm
09:22 AM 61.9°F16.6°C 52.7°F11.5°C 72% 3.8 mph SSW6.1 kmh SSW 2.0 mph3.2 kmh 29.77 in1008.1 mb - 0.00 in0.0 mm 0.02 in0.5 mm
09:17 AM 62.1°F16.7°C 52.9°F11.6°C 72% 2.7 mph SW4.3 kmh SW 4.3 mph6.9 kmh 29.78 in1008.5 mb - 0.00 in0.0 mm 0.02 in0.5 mm
09:12 AM 61.9°F16.6°C 54.3°F12.4°C 76% 2.5 mph WSW4.0 kmh WSW 3.1 mph5.0 kmh 29.77 in1008.1 mb - 0.00 in0.0 mm 0.02 in0.5 mm
09:07 AM 60.6°F15.9°C 52.3°F11.3°C 74% 4.7 mph WSW7.6 kmh WSW 2.0 mph3.2 kmh 29.78 in1008.5 mb - 0.00 in0.0 mm 0.02 in0.5 mm
09:02 AM 59.7°F15.4°C 51.4°F10.8°C 74% 3.6 mph WSW5.8 kmh WSW 4.3 mph6.9 kmh 29.78 in1008.5 mb - 0.00 in0.0 mm 0.02 in0.5 mm
08:57 AM 60.4°F15.8°C 52.9°F11.6°C 76% 3.6 mph SW5.8 kmh SW 3.1 mph5.0 kmh 29.78 in1008.5 mb - 0.00 in0.0 mm 0.02 in0.5 mm
08:52 AM 61.3°F16.3°C 54.9°F12.7°C 79% 2.9 mph SW4.7 kmh SW 5.4 mph8.7 kmh 29.78 in1008.5 mb - 0.00 in0.0 mm 0.02 in0.5 mm
08:47 AM 61.0°F16.1°C 53.8°F12.1°C 77% 3.6 mph WNW5.8 kmh WNW 6.3 mph10.1 kmh 29.78 in1008.5 mb - 0.00 in0.0 mm 0.02 in0.5 mm
08:42 AM 60.6°F15.9°C 53.8°F12.1°C 78% 4.3 mph SW6.9 kmh SW 4.3 mph6.9 kmh 29.78 in1008.5 mb - 0.00 in0.0 mm 0.02 in0.5 mm
08:37 AM 61.3°F16.3°C 55.4°F13.0°C 81% 3.6 mph SSW5.8 kmh SSW -- 29.78 in1008.5 mb - 0.00 in0.0 mm 0.02 in0.5 mm
08:32 AM 61.7°F16.5°C 54.9°F12.7°C 78% 3.1 mph SW5.0 kmh SW 3.1 mph5.0 kmh 29.78 in1008.5 mb - 0.00 in0.0 mm 0.02 in0.5 mm
08:27 AM 60.6°F15.9°C 54.7°F12.6°C 81% 2.2 mph SSW3.5 kmh SSW 2.0 mph3.2 kmh 29.78 in1008.5 mb - 0.00 in0.0 mm 0.02 in0.5 mm
08:22 AM 61.0°F16.1°C 54.5°F12.5°C 79% 3.8 mph S6.1 kmh S 6.3 mph10.1 kmh 29.78 in1008.5 mb - 0.00 in0.0 mm 0.02 in0.5 mm
08:17 AM 60.6°F15.9°C 54.7°F12.6°C 81% 3.1 mph W5.0 kmh W 2.0 mph3.2 kmh 29.78 in1008.5 mb - 0.00 in0.0 mm 0.02 in0.5 mm
08:12 AM 60.3°F15.7°C 55.4°F13.0°C 84% 1.8 mph SSW2.9 kmh SSW 1.1 mph1.8 kmh 29.78 in1008.5 mb - 0.00 in0.0 mm 0.02 in0.5 mm
08:07 AM 59.7°F15.4°C 54.9°F12.7°C 84% 2.5 mph WSW4.0 kmh WSW -- 29.78 in1008.5 mb - 0.00 in0.0 mm 0.02 in0.5 mm
08:02 AM 59.9°F15.5°C 55.0°F12.8°C 84% 2.0 mph SSW3.2 kmh SSW 3.1 mph5.0 kmh 29.78 in1008.5 mb - 0.00 in0.0 mm 0.02 in0.5 mm
07:57 AM 59.4°F15.2°C 54.5°F12.5°C 84% 1.1 mph SSW1.8 kmh SSW 2.0 mph3.2 kmh 29.78 in1008.5 mb - 0.00 in0.0 mm 0.02 in0.5 mm
07:52 AM 58.8°F14.9°C 54.3°F12.4°C 85% 1.8 mph WSW2.9 kmh WSW 2.0 mph3.2 kmh 29.78 in1008.5 mb - 0.00 in0.0 mm 0.02 in0.5 mm
07:47 AM 58.5°F14.7°C 54.3°F12.4°C 86% 2.0 mph SW3.2 kmh SW 1.1 mph1.8 kmh 29.78 in1008.5 mb - 0.00 in0.0 mm 0.02 in0.5 mm
07:42 AM 58.3°F14.6°C 54.1°F12.3°C 86% 2.5 mph SW4.0 kmh SW 2.0 mph3.2 kmh 29.78 in1008.5 mb - 0.00 in0.0 mm 0.02 in0.5 mm
07:37 AM 58.5°F14.7°C 54.9°F12.7°C 88% 4.0 mph WSW6.4 kmh WSW 3.1 mph5.0 kmh 29.78 in1008.5 mb - 0.00 in0.0 mm 0.02 in0.5 mm
07:32 AM 57.9°F14.4°C 54.3°F12.4°C 88% 2.2 mph WNW3.5 kmh WNW -- 29.78 in1008.5 mb - 0.00 in0.0 mm 0.02 in0.5 mm
07:27 AM 57.7°F14.3°C 54.5°F12.5°C 89% 2.5 mph W4.0 kmh W 1.1 mph1.8 kmh 29.78 in1008.5 mb - 0.00 in0.0 mm 0.02 in0.5 mm
07:22 AM 57.0°F13.9°C 54.1°F12.3°C 90% 2.0 mph SW3.2 kmh SW 1.1 mph1.8 kmh 29.78 in1008.5 mb - 0.00 in0.0 mm 0.02 in0.5 mm
07:17 AM 57.0°F13.9°C 54.1°F12.3°C 90% 2.7 mph WSW4.3 kmh WSW 1.1 mph1.8 kmh 29.78 in1008.5 mb - 0.00 in0.0 mm 0.02 in0.5 mm
07:12 AM 57.0°F13.9°C 54.1°F12.3°C 90% 2.5 mph WSW4.0 kmh WSW 1.1 mph1.8 kmh 29.78 in1008.5 mb - 0.00 in0.0 mm 0.02 in0.5 mm
07:07 AM 57.0°F13.9°C 54.5°F12.5°C 91% 1.8 mph SSW2.9 kmh SSW 1.1 mph1.8 kmh 29.78 in1008.5 mb - 0.00 in0.0 mm 0.02 in0.5 mm
07:02 AM 57.0°F13.9°C 54.7°F12.6°C 92% 0.7 mph SW1.1 kmh SW 1.1 mph1.8 kmh 29.78 in1008.5 mb - 0.00 in0.0 mm 0.02 in0.5 mm
06:57 AM 56.7°F13.7°C 54.3°F12.4°C 92% 0.4 mph W0.6 kmh W 3.1 mph5.0 kmh 29.78 in1008.5 mb - 0.00 in0.0 mm 0.02 in0.5 mm
06:52 AM 56.3°F13.5°C 53.8°F12.1°C 91% 0.7 mph SW1.1 kmh SW -- 29.77 in1008.1 mb - 0.00 in0.0 mm 0.02 in0.5 mm
06:47 AM 56.1°F13.4°C 53.8°F12.1°C 92% 1.6 mph SE2.6 kmh SE 1.1 mph1.8 kmh 29.77 in1008.1 mb - 0.00 in0.0 mm 0.02 in0.5 mm
06:42 AM 55.9°F13.3°C 53.6°F12.0°C 92% 0.9 mph WSW1.4 kmh WSW -- 29.77 in1008.1 mb - 0.00 in0.0 mm 0.02 in0.5 mm
06:37 AM 55.9°F13.3°C 53.6°F12.0°C 92% 2.5 mph WSW4.0 kmh WSW 2.0 mph3.2 kmh 29.77 in1008.1 mb - 0.00 in0.0 mm 0.02 in0.5 mm
06:32 AM 55.8°F13.2°C 53.4°F11.9°C 92% 1.8 mph WSW2.9 kmh WSW 1.1 mph1.8 kmh 29.77 in1008.1 mb - 0.00 in0.0 mm 0.02 in0.5 mm
06:27 AM 55.8°F13.2°C 53.4°F11.9°C 92% 0.9 mph SW1.4 kmh SW 1.1 mph1.8 kmh 29.77 in1008.1 mb - 0.00 in0.0 mm 0.02 in0.5 mm
06:22 AM 55.6°F13.1°C 53.2°F11.8°C 92% 1.8 mph W2.9 kmh W 2.0 mph3.2 kmh 29.77 in1008.1 mb - 0.00 in0.0 mm 0.02 in0.5 mm
06:17 AM 55.4°F13.0°C 53.4°F11.9°C 93% 0.9 mph SSW1.4 kmh SSW 2.0 mph3.2 kmh 29.77 in1008.1 mb - 0.00 in0.0 mm 0.02 in0.5 mm
06:12 AM 55.2°F12.9°C 53.6°F12.0°C 94% 0.2 mph SW0.3 kmh SW -- 29.76 in1007.8 mb - 0.00 in0.0 mm 0.02 in0.5 mm
06:07 AM 54.9°F12.7°C 53.2°F11.8°C 94% 0.4 mph SW0.6 kmh SW -- 29.76 in1007.8 mb - 0.00 in0.0 mm 0.02 in0.5 mm
06:02 AM 54.3°F12.4°C 52.7°F11.5°C 94% Calm Calm -- 29.76 in1007.8 mb - 0.00 in0.0 mm 0.02 in0.5 mm
05:57 AM 54.1°F12.3°C 52.7°F11.5°C 95% 0.4 mph WSW0.6 kmh WSW -- 29.76 in1007.8 mb - 0.00 in0.0 mm 0.02 in0.5 mm
05:52 AM 54.0°F12.2°C 52.9°F11.6°C 96% Calm Calm -- 29.76 in1007.8 mb - 0.00 in0.0 mm 0.02 in0.5 mm
05:47 AM 53.6°F12.0°C 52.5°F11.4°C 96% Calm Calm -- 29.76 in1007.8 mb - 0.00 in0.0 mm 0.02 in0.5 mm
05:42 AM 53.2°F11.8°C 51.8°F11.0°C 95% Calm Calm -- 29.76 in1007.8 mb - 0.00 in0.0 mm 0.02 in0.5 mm
05:37 AM 53.2°F11.8°C 52.2°F11.2°C 96% Calm Calm -- 29.75 in1007.5 mb - 0.00 in0.0 mm 0.02 in0.5 mm
05:32 AM 53.2°F11.8°C 52.2°F11.2°C 96% Calm Calm -- 29.75 in1007.5 mb - 0.00 in0.0 mm 0.02 in0.5 mm
05:27 AM 53.2°F11.8°C 52.2°F11.2°C 96% 0.2 mph WSW0.3 kmh WSW -- 29.75 in1007.5 mb - 0.00 in0.0 mm 0.02 in0.5 mm
05:22 AM 53.1°F11.7°C 52.0°F11.1°C 96% Calm Calm -- 29.75 in1007.5 mb - 0.00 in0.0 mm 0.02 in0.5 mm
05:17 AM 53.1°F11.7°C 52.0°F11.1°C 96% Calm Calm -- 29.75 in1007.5 mb - 0.00 in0.0 mm 0.02 in0.5 mm
05:12 AM 53.1°F11.7°C 52.0°F11.1°C 96% Calm Calm -- 29.75 in1007.5 mb - 0.00 in0.0 mm 0.02 in0.5 mm
05:07 AM 53.1°F11.7°C 52.0°F11.1°C 96% Calm Calm -- 29.75 in1007.5 mb - 0.00 in0.0 mm 0.02 in0.5 mm
05:02 AM 53.1°F11.7°C 52.0°F11.1°C 96% Calm Calm -- 29.75 in1007.5 mb - 0.00 in0.0 mm 0.02 in0.5 mm
04:57 AM 53.1°F11.7°C 52.0°F11.1°C 96% Calm Calm -- 29.75 in1007.5 mb - 0.00 in0.0 mm 0.02 in0.5 mm
04:52 AM 53.2°F11.8°C 52.2°F11.2°C 96% Calm Calm -- 29.75 in1007.5 mb - 0.00 in0.0 mm 0.02 in0.5 mm
04:47 AM 53.2°F11.8°C 52.2°F11.2°C 96% Calm Calm -- 29.75 in1007.5 mb - 0.00 in0.0 mm 0.02 in0.5 mm
04:42 AM 53.2°F11.8°C 52.2°F11.2°C 96% Calm Calm -- 29.75 in1007.5 mb - 0.00 in0.0 mm 0.02 in0.5 mm
04:37 AM 53.2°F11.8°C 52.2°F11.2°C 96% Calm Calm -- 29.75 in1007.5 mb - 0.00 in0.0 mm 0.02 in0.5 mm
04:32 AM 53.2°F11.8°C 52.2°F11.2°C 96% 0.2 mph WSW0.3 kmh WSW -- 29.75 in1007.5 mb - 0.00 in0.0 mm 0.02 in0.5 mm
04:27 AM 53.2°F11.8°C 52.2°F11.2°C 96% Calm Calm -- 29.75 in1007.5 mb - 0.00 in0.0 mm 0.02 in0.5 mm
04:22 AM 53.2°F11.8°C 52.2°F11.2°C 96% Calm Calm -- 29.75 in1007.5 mb - 0.00 in0.0 mm 0.02 in0.5 mm
04:17 AM 53.4°F11.9°C 52.3°F11.3°C 96% Calm Calm -- 29.75 in1007.5 mb - 0.00 in0.0 mm 0.02 in0.5 mm
04:12 AM 53.8°F12.1°C 52.7°F11.5°C 96% 0.2 mph WSW0.3 kmh WSW -- 29.75 in1007.5 mb - 0.00 in0.0 mm 0.02 in0.5 mm
04:07 AM 54.0°F12.2°C 52.9°F11.6°C 96% 0.2 mph W0.3 kmh W -- 29.75 in1007.5 mb - 0.00 in0.0 mm 0.02 in0.5 mm
04:02 AM 54.1°F12.3°C 53.1°F11.7°C 96% 1.3 mph W2.1 kmh W 1.1 mph1.8 kmh 29.75 in1007.5 mb - 0.00 in0.0 mm 0.02 in0.5 mm
03:57 AM 54.3°F12.4°C 53.2°F11.8°C 96% 0.4 mph WSW0.6 kmh WSW 3.1 mph5.0 kmh 29.75 in1007.5 mb - 0.00 in0.0 mm 0.02 in0.5 mm
03:52 AM 54.7°F12.6°C 53.6°F12.0°C 96% 1.3 mph W2.1 kmh W 1.1 mph1.8 kmh 29.75 in1007.5 mb - 0.00 in0.0 mm 0.02 in0.5 mm
03:47 AM 54.9°F12.7°C 53.8°F12.1°C 96% 0.2 mph WNW0.3 kmh WNW -- 29.75 in1007.5 mb - 0.00 in0.0 mm 0.02 in0.5 mm
03:42 AM 54.9°F12.7°C 53.8°F12.1°C 96% 1.8 mph WSW2.9 kmh WSW -- 29.75 in1007.5 mb - 0.00 in0.0 mm 0.02 in0.5 mm
03:37 AM 55.0°F12.8°C 54.0°F12.2°C 96% 1.6 mph WSW2.6 kmh WSW 1.1 mph1.8 kmh 29.75 in1007.5 mb - 0.00 in0.0 mm 0.02 in0.5 mm
03:32 AM 55.2°F12.9°C 54.1°F12.3°C 96% 0.4 mph WSW0.6 kmh WSW 3.1 mph5.0 kmh 29.75 in1007.5 mb - 0.00 in0.0 mm 0.02 in0.5 mm
03:27 AM 55.6°F13.1°C 54.5°F12.5°C 96% Calm Calm -- 29.75 in1007.5 mb - 0.00 in0.0 mm 0.02 in0.5 mm
03:22 AM 55.6°F13.1°C 54.5°F12.5°C 96% 0.7 mph SW1.1 kmh SW -- 29.75 in1007.5 mb - 0.00 in0.0 mm 0.02 in0.5 mm
03:17 AM 55.6°F13.1°C 54.5°F12.5°C 96% 0.4 mph SW0.6 kmh SW -- 29.75 in1007.5 mb - 0.00 in0.0 mm 0.02 in0.5 mm
03:12 AM 55.8°F13.2°C 54.7°F12.6°C 96% Calm Calm -- 29.75 in1007.5 mb - 0.00 in0.0 mm 0.02 in0.5 mm
03:07 AM 55.8°F13.2°C 54.7°F12.6°C 96% 0.2 mph S0.3 kmh S -- 29.75 in1007.5 mb - 0.00 in0.0 mm 0.02 in0.5 mm
03:02 AM 55.8°F13.2°C 54.7°F12.6°C 96% 0.2 mph SW0.3 kmh SW -- 29.76 in1007.8 mb - 0.00 in0.0 mm 0.02 in0.5 mm
02:57 AM 55.8°F13.2°C 54.7°F12.6°C 96% 0.4 mph SW0.6 kmh SW -- 29.76 in1007.8 mb - 0.00 in0.0 mm 0.02 in0.5 mm
02:52 AM 55.9°F13.3°C 54.9°F12.7°C 96% 0.7 mph WSW1.1 kmh WSW -- 29.75 in1007.5 mb - 0.03 in0.8 mm 0.02 in0.5 mm
02:47 AM 55.9°F13.3°C 54.9°F12.7°C 96% 0.7 mph S1.1 kmh S 2.0 mph3.2 kmh 29.75 in1007.5 mb - 0.03 in0.8 mm 0.02 in0.5 mm
02:42 AM 55.9°F13.3°C 54.9°F12.7°C 96% 0.7 mph WSW1.1 kmh WSW 1.1 mph1.8 kmh 29.75 in1007.5 mb - 0.03 in0.8 mm 0.02 in0.5 mm
02:37 AM 55.9°F13.3°C 54.9°F12.7°C 96% 1.3 mph W2.1 kmh W 4.3 mph6.9 kmh 29.75 in1007.5 mb - 0.00 in0.0 mm 0.02 in0.5 mm
02:32 AM 55.9°F13.3°C 54.9°F12.7°C 96% 0.2 mph SSE0.3 kmh SSE 1.1 mph1.8 kmh 29.75 in1007.5 mb - 0.00 in0.0 mm 0.02 in0.5 mm
02:27 AM 56.1°F13.4°C 55.0°F12.8°C 96% 0.4 mph SW0.6 kmh SW -- 29.75 in1007.5 mb - 0.00 in0.0 mm 0.02 in0.5 mm
02:22 AM 56.1°F13.4°C 55.0°F12.8°C 96% 0.2 mph SW0.3 kmh SW -- 29.75 in1007.5 mb - 0.00 in0.0 mm 0.02 in0.5 mm
02:17 AM 56.1°F13.4°C 55.0°F12.8°C 96% 0.7 mph SW1.1 kmh SW 1.1 mph1.8 kmh 29.75 in1007.5 mb - 0.00 in0.0 mm 0.02 in0.5 mm
02:12 AM 56.3°F13.5°C 55.2°F12.9°C 96% Calm Calm -- 29.75 in1007.5 mb - 0.00 in0.0 mm 0.02 in0.5 mm
02:07 AM 56.3°F13.5°C 55.2°F12.9°C 96% 0.2 mph SSW0.3 kmh SSW -- 29.75 in1007.5 mb - 0.00 in0.0 mm 0.02 in0.5 mm
02:02 AM 56.5°F13.6°C 55.4°F13.0°C 96% 0.7 mph SSW1.1 kmh SSW 2.0 mph3.2 kmh 29.75 in1007.5 mb - 0.00 in0.0 mm 0.02 in0.5 mm
01:57 AM 56.5°F13.6°C 55.4°F13.0°C 96% 0.7 mph SSW1.1 kmh SSW -- 29.75 in1007.5 mb - 0.00 in0.0 mm 0.02 in0.5 mm
01:52 AM 56.5°F13.6°C 55.4°F13.0°C 96% 0.2 mph WSW0.3 kmh WSW -- 29.75 in1007.5 mb - 0.00 in0.0 mm 0.02 in0.5 mm
01:47 AM 56.7°F13.7°C 55.6°F13.1°C 96% 0.9 mph W1.4 kmh W -- 29.75 in1007.5 mb - 0.00 in0.0 mm 0.02 in0.5 mm
01:42 AM 56.7°F13.7°C 55.6°F13.1°C 96% 0.2 mph W0.3 kmh W -- 29.75 in1007.5 mb - 0.00 in0.0 mm 0.02 in0.5 mm
01:37 AM 56.7°F13.7°C 55.6°F13.1°C 96% Calm Calm -- 29.75 in1007.5 mb - 0.00 in0.0 mm 0.02 in0.5 mm
01:32 AM 56.7°F13.7°C 55.6°F13.1°C 96% 0.2 mph W0.3 kmh W -- 29.75 in1007.5 mb - 0.00 in0.0 mm 0.02 in0.5 mm
01:27 AM 56.7°F13.7°C 55.6°F13.1°C 96% 0.7 mph W1.1 kmh W 2.0 mph3.2 kmh 29.75 in1007.5 mb - 0.00 in0.0 mm 0.02 in0.5 mm
01:22 AM 56.7°F13.7°C 55.6°F13.1°C 96% Calm Calm -- 29.75 in1007.5 mb - 0.00 in0.0 mm 0.02 in0.5 mm
01:17 AM 56.7°F13.7°C 55.6°F13.1°C 96% 1.1 mph SW1.8 kmh SW 2.0 mph3.2 kmh 29.75 in1007.5 mb - 0.00 in0.0 mm 0.02 in0.5 mm
01:12 AM 56.7°F13.7°C 55.6°F13.1°C 96% Calm Calm -- 29.75 in1007.5 mb - 0.00 in0.0 mm 0.02 in0.5 mm
01:07 AM 56.7°F13.7°C 55.6°F13.1°C 96% 0.9 mph SW1.4 kmh SW 1.1 mph1.8 kmh 29.75 in1007.5 mb - 0.00 in0.0 mm 0.02 in0.5 mm
01:02 AM 56.7°F13.7°C 55.6°F13.1°C 96% 0.4 mph S0.6 kmh S -- 29.75 in1007.5 mb - 0.00 in0.0 mm 0.02 in0.5 mm
12:57 AM 56.7°F13.7°C 55.6°F13.1°C 96% Calm Calm -- 29.75 in1007.5 mb - 0.00 in0.0 mm 0.02 in0.5 mm
12:52 AM 56.7°F13.7°C 55.6°F13.1°C 96% 2.2 mph S3.5 kmh S 3.1 mph5.0 kmh 29.75 in1007.5 mb - 0.00 in0.0 mm 0.02 in0.5 mm
12:47 AM 56.7°F13.7°C 55.6°F13.1°C 96% 0.7 mph SW1.1 kmh SW 1.1 mph1.8 kmh 29.75 in1007.5 mb - 0.00 in0.0 mm 0.02 in0.5 mm
12:42 AM 56.7°F13.7°C 55.6°F13.1°C 96% 1.8 mph S2.9 kmh S 3.1 mph5.0 kmh 29.75 in1007.5 mb - 0.00 in0.0 mm 0.02 in0.5 mm
12:37 AM 56.7°F13.7°C 55.6°F13.1°C 96% 1.8 mph SSW2.9 kmh SSW 1.1 mph1.8 kmh 29.75 in1007.5 mb - 0.00 in0.0 mm 0.02 in0.5 mm
12:32 AM 56.7°F13.7°C 55.6°F13.1°C 96% 1.6 mph SW2.6 kmh SW -- 29.75 in1007.5 mb - 0.00 in0.0 mm 0.02 in0.5 mm
12:27 AM 56.7°F13.7°C 55.6°F13.1°C 96% 2.7 mph WSW4.3 kmh WSW 1.1 mph1.8 kmh 29.75 in1007.5 mb - 0.00 in0.0 mm 0.02 in0.5 mm
12:22 AM 56.7°F13.7°C 55.6°F13.1°C 96% 1.8 mph SSW2.9 kmh SSW 1.1 mph1.8 kmh 29.76 in1007.8 mb - 0.00 in0.0 mm 0.02 in0.5 mm
12:17 AM 56.8°F13.8°C 55.4°F13.0°C 95% 1.6 mph S2.6 kmh S 1.1 mph1.8 kmh 29.76 in1007.8 mb - 0.00 in0.0 mm 0.02 in0.5 mm
12:12 AM 56.8°F13.8°C 55.4°F13.0°C 95% 1.1 mph SSW1.8 kmh SSW 1.1 mph1.8 kmh 29.76 in1007.8 mb - 0.00 in0.0 mm 0.02 in0.5 mm
12:07 AM 56.8°F13.8°C 55.4°F13.0°C 95% 1.1 mph S1.8 kmh S 2.0 mph3.2 kmh 29.76 in1007.8 mb - 0.00 in0.0 mm 0.02 in0.5 mm
12:02 AM 56.8°F13.8°C 55.4°F13.0°C 95% 0.9 mph SSW1.4 kmh SSW 1.1 mph1.8 kmh 29.76 in1007.8 mb - 0.00 in0.0 mm 0.02 in0.5 mm